createdAt,value
2019-05-06T00:00:13.957Z,5.52
2019-05-06T00:01:12.462Z,5.50
2019-05-06T00:02:13.816Z,5.55
2019-05-06T00:03:13.870Z,5.53
2019-05-06T00:04:14.060Z,5.48
2019-05-06T00:05:14.311Z,5.38
2019-05-06T00:06:14.430Z,5.46
2019-05-06T00:07:13.810Z,5.38
2019-05-06T00:08:14.456Z,5.37
2019-05-06T00:09:14.578Z,5.32
2019-05-06T00:10:13.451Z,5.41
2019-05-06T00:11:14.178Z,5.35
2019-05-06T00:12:14.554Z,5.34
2019-05-06T00:13:14.028Z,5.34
2019-05-06T00:14:14.150Z,5.37
2019-05-06T00:15:14.494Z,5.37
2019-05-06T00:16:14.383Z,5.35
2019-05-06T00:17:14.557Z,5.35
2019-05-06T00:18:13.823Z,5.38
2019-05-06T00:19:13.876Z,5.32
2019-05-06T00:20:14.656Z,5.37
2019-05-06T00:21:14.763Z,5.35
2019-05-06T00:22:14.239Z,5.32
2019-05-06T00:23:14.231Z,5.32
2019-05-06T00:24:14.616Z,5.31
2019-05-06T00:25:14.041Z,5.30
2019-05-06T00:26:13.739Z,5.31
2019-05-06T00:27:14.174Z,5.25
2019-05-06T00:28:13.746Z,5.20
2019-05-06T00:29:13.971Z,5.27
2019-05-06T00:30:14.936Z,5.25
2019-05-06T00:31:16.533Z,5.25
2019-05-06T00:32:15.026Z,5.27
2019-05-06T00:33:13.860Z,5.28
2019-05-06T00:34:13.973Z,5.28
2019-05-06T00:35:14.243Z,5.37
2019-05-06T00:36:14.200Z,5.23
2019-05-06T00:37:14.604Z,5.16
2019-05-06T00:38:14.068Z,5.28
2019-05-06T00:39:14.901Z,5.23
2019-05-06T00:40:14.157Z,5.34
2019-05-06T00:41:14.442Z,5.28
2019-05-06T00:42:14.224Z,5.19
2019-05-06T00:43:14.288Z,5.20
2019-05-06T00:44:14.410Z,5.23
2019-05-06T00:45:14.342Z,5.19
2019-05-06T00:46:14.393Z,5.20
2019-05-06T00:47:14.430Z,5.20
2019-05-06T00:48:14.492Z,5.28
2019-05-06T00:49:14.533Z,5.22
2019-05-06T00:50:14.561Z,5.14
2019-05-06T00:51:14.608Z,5.16
2019-05-06T00:52:14.651Z,5.16
2019-05-06T00:53:14.684Z,5.19
2019-05-06T00:54:14.745Z,5.10
2019-05-06T00:55:14.770Z,5.25
2019-05-06T00:56:14.814Z,5.09
2019-05-06T00:57:14.855Z,5.14
2019-05-06T00:58:14.899Z,5.05
2019-05-06T00:59:14.969Z,5.07
2019-05-06T01:00:14.985Z,5.02
2019-05-06T01:01:26.326Z,5.07
2019-05-06T01:02:15.068Z,4.99
2019-05-06T01:03:15.110Z,5.05
2019-05-06T01:04:15.175Z,4.98
2019-05-06T01:05:15.213Z,4.95
2019-05-06T01:06:15.247Z,4.96
2019-05-06T01:07:15.280Z,4.89
2019-05-06T01:08:15.323Z,4.95
2019-05-06T01:09:15.365Z,4.94
2019-05-06T01:10:15.426Z,4.86
2019-05-06T01:11:15.450Z,4.92
2019-05-06T01:12:15.495Z,4.86
2019-05-06T01:13:15.537Z,4.80
2019-05-06T01:14:15.601Z,4.89
2019-05-06T01:15:15.643Z,4.88
2019-05-06T01:16:15.816Z,4.79
2019-05-06T01:17:15.705Z,4.79
2019-05-06T01:18:15.747Z,4.76
2019-05-06T01:19:15.791Z,4.76
2019-05-06T01:20:15.861Z,4.62
2019-05-06T01:21:15.884Z,4.61
2019-05-06T01:22:15.918Z,4.64
2019-05-06T01:23:15.964Z,4.70
2019-05-06T01:24:16.015Z,4.61
2019-05-06T01:25:16.074Z,4.62
2019-05-06T01:26:16.085Z,4.69
2019-05-06T01:27:16.126Z,4.70
2019-05-06T01:28:16.174Z,4.65
2019-05-06T01:29:16.208Z,4.59
2019-05-06T01:30:16.274Z,4.61
2019-05-06T01:31:16.296Z,4.65
2019-05-06T01:32:16.343Z,4.62
2019-05-06T01:33:16.383Z,4.59
2019-05-06T01:34:16.431Z,4.57
2019-05-06T01:35:16.490Z,4.52
2019-05-06T01:36:16.549Z,4.54
2019-05-06T01:37:16.546Z,4.54
2019-05-06T01:38:16.600Z,4.54
2019-05-06T01:39:16.637Z,4.44
2019-05-06T01:40:16.695Z,4.51
2019-05-06T01:41:16.729Z,4.51
2019-05-06T01:42:16.769Z,4.54
2019-05-06T01:43:16.799Z,4.46
2019-05-06T01:44:16.841Z,4.51
2019-05-06T01:45:16.912Z,4.51
2019-05-06T01:46:16.927Z,4.44
2019-05-06T01:47:16.969Z,4.51
2019-05-06T01:48:17.015Z,4.59
2019-05-06T01:49:17.054Z,4.59
2019-05-06T01:50:17.114Z,4.64
2019-05-06T01:51:17.157Z,4.55
2019-05-06T01:52:17.176Z,4.51
2019-05-06T01:53:17.222Z,4.46
2019-05-06T01:54:17.263Z,4.50
2019-05-06T01:55:17.309Z,4.37
2019-05-06T01:56:17.379Z,4.52
2019-05-06T01:57:17.387Z,4.39
2019-05-06T01:58:17.463Z,4.50
2019-05-06T01:59:17.472Z,4.36
2019-05-06T02:00:17.517Z,4.46
2019-05-06T02:01:17.575Z,4.42
2019-05-06T02:02:17.617Z,4.47
2019-05-06T02:03:17.649Z,4.36
2019-05-06T02:04:17.682Z,4.34
2019-05-06T02:05:17.722Z,4.32
2019-05-06T02:06:17.793Z,4.33
2019-05-06T02:07:17.816Z,4.25
2019-05-06T02:08:17.857Z,4.28
2019-05-06T02:09:17.895Z,4.34
2019-05-06T02:10:17.945Z,4.26
2019-05-06T02:11:17.999Z,4.26
2019-05-06T02:12:18.063Z,4.26
2019-05-06T02:13:18.069Z,4.29
2019-05-06T02:14:18.102Z,4.28
2019-05-06T02:15:18.149Z,4.32
2019-05-06T02:16:18.186Z,4.28
2019-05-06T02:17:18.255Z,4.28
2019-05-06T02:18:18.270Z,4.24
2019-05-06T02:19:18.318Z,4.22
2019-05-06T02:20:18.355Z,4.28
2019-05-06T02:21:18.398Z,4.16
2019-05-06T02:22:18.461Z,4.26
2019-05-06T02:23:18.486Z,4.08
2019-05-06T02:24:18.531Z,4.06
2019-05-06T02:25:18.566Z,4.08
2019-05-06T02:26:18.636Z,4.07
2019-05-06T02:27:18.663Z,4.18
2019-05-06T02:28:18.689Z,4.21
2019-05-06T02:29:18.732Z,4.16
2019-05-06T02:30:18.781Z,4.22
2019-05-06T02:31:18.817Z,4.22
2019-05-06T02:32:26.073Z,4.26
2019-05-06T02:33:18.897Z,4.12
2019-05-06T02:34:18.935Z,4.12
2019-05-06T02:35:18.988Z,4.08
2019-05-06T02:36:19.020Z,4.07
2019-05-06T02:37:19.091Z,4.00
2019-05-06T02:38:19.116Z,4.07
2019-05-06T02:39:19.151Z,4.01
2019-05-06T02:40:19.203Z,3.98
2019-05-06T02:41:19.228Z,4.10
2019-05-06T02:42:19.290Z,4.14
2019-05-06T02:43:19.316Z,4.10
2019-05-06T02:44:19.366Z,4.03
2019-05-06T02:45:19.405Z,4.12
2019-05-06T02:46:19.449Z,4.21
2019-05-06T02:47:19.519Z,4.22
2019-05-06T02:48:19.525Z,4.19
2019-05-06T02:49:19.563Z,4.33
2019-05-06T02:50:19.610Z,4.28
2019-05-06T02:51:19.655Z,4.24
2019-05-06T02:52:22.641Z,4.34
2019-05-06T02:53:19.739Z,4.33
2019-05-06T02:54:23.180Z,4.32
2019-05-06T02:55:19.828Z,4.28
2019-05-06T02:56:19.891Z,4.26
2019-05-06T02:57:19.920Z,4.25
2019-05-06T02:58:19.940Z,4.34
2019-05-06T02:59:19.989Z,4.28
2019-05-06T03:00:20.027Z,4.10
2019-05-06T03:01:23.047Z,4.06
2019-05-06T03:02:37.555Z,4.14
2019-05-06T03:03:23.037Z,4.07
2019-05-06T03:04:20.194Z,4.15
2019-05-06T03:05:20.232Z,4.07
2019-05-06T03:06:20.276Z,4.14
2019-05-06T03:07:23.167Z,4.08
2019-05-06T03:08:23.476Z,4.08
2019-05-06T03:09:23.105Z,4.10
2019-05-06T03:10:24.360Z,4.07
2019-05-06T03:11:20.481Z,4.12
2019-05-06T03:12:22.854Z,4.12
2019-05-06T03:13:23.346Z,4.12
2019-05-06T03:14:23.456Z,4.08
2019-05-06T03:15:23.645Z,4.24
2019-05-06T03:16:23.515Z,4.21
2019-05-06T03:17:23.162Z,4.06
2019-05-06T03:18:23.297Z,4.06
2019-05-06T03:19:23.808Z,4.15
2019-05-06T03:20:23.571Z,4.03
2019-05-06T03:21:24.422Z,4.12
2019-05-06T03:22:27.378Z,4.06
2019-05-06T03:23:23.632Z,4.10
2019-05-06T03:24:23.664Z,4.08
2019-05-06T03:25:23.880Z,4.07
2019-05-06T03:26:23.413Z,4.21
2019-05-06T03:27:23.365Z,4.16
2019-05-06T03:28:22.545Z,4.26
2019-05-06T03:29:21.246Z,4.19
2019-05-06T03:30:25.587Z,4.28
2019-05-06T03:31:26.166Z,4.18
2019-05-06T03:32:24.902Z,4.22
2019-05-06T03:33:44.691Z,4.25
2019-05-06T03:34:38.448Z,4.25
2019-05-06T03:35:40.414Z,4.18
2019-05-06T03:36:27.039Z,4.19
2019-05-06T03:37:23.922Z,4.21
2019-05-06T03:38:22.936Z,4.26
2019-05-06T03:39:23.223Z,4.16
2019-05-06T03:40:23.114Z,4.18
2019-05-06T03:41:23.396Z,4.15
2019-05-06T03:42:23.109Z,4.07
2019-05-06T03:43:23.296Z,4.10
2019-05-06T03:44:23.828Z,4.15
2019-05-06T03:45:23.684Z,4.08
2019-05-06T03:46:23.251Z,4.03
2019-05-06T03:47:23.492Z,4.15
2019-05-06T03:48:23.972Z,4.06
2019-05-06T03:49:23.773Z,4.21
2019-05-06T03:50:24.038Z,4.18
2019-05-06T03:51:23.367Z,4.18
2019-05-06T03:52:23.343Z,4.14
2019-05-06T03:53:23.264Z,4.18
2019-05-06T03:54:23.186Z,4.28
2019-05-06T03:55:23.478Z,4.26
2019-05-06T03:56:23.812Z,4.28
2019-05-06T03:57:23.209Z,4.18
2019-05-06T03:58:23.619Z,4.21
2019-05-06T03:59:23.338Z,4.18
2019-05-06T04:00:23.681Z,4.28
2019-05-06T04:01:24.044Z,4.21
2019-05-06T04:02:24.091Z,4.24
2019-05-06T04:03:41.158Z,4.26
2019-05-06T04:04:23.369Z,4.08
2019-05-06T04:05:23.898Z,4.08
2019-05-06T04:06:24.187Z,4.12
2019-05-06T04:07:23.566Z,4.07
2019-05-06T04:08:24.166Z,4.10
2019-05-06T04:09:23.984Z,4.12
2019-05-06T04:10:23.077Z,4.08
2019-05-06T04:11:23.070Z,4.07
2019-05-06T04:12:23.488Z,4.14
2019-05-06T04:13:23.284Z,4.07
2019-05-06T04:14:23.820Z,4.08
2019-05-06T04:15:26.600Z,4.10
2019-05-06T04:16:23.317Z,4.07
2019-05-06T04:17:23.903Z,4.07
2019-05-06T04:18:23.807Z,4.08
2019-05-06T04:19:23.882Z,4.06
2019-05-06T04:20:23.707Z,4.03
2019-05-06T04:21:23.945Z,4.14
2019-05-06T04:22:23.714Z,4.10
2019-05-06T04:23:23.593Z,4.10
2019-05-06T04:24:23.573Z,4.08
2019-05-06T04:25:23.582Z,4.08
2019-05-06T04:26:24.058Z,4.03
2019-05-06T04:27:23.666Z,4.07
2019-05-06T04:28:23.985Z,3.98
2019-05-06T04:29:24.166Z,4.00
2019-05-06T04:30:24.462Z,4.03
2019-05-06T04:31:23.858Z,3.97
2019-05-06T04:32:23.871Z,3.98
2019-05-06T04:33:24.007Z,4.06
2019-05-06T04:34:23.976Z,4.03
2019-05-06T04:35:24.031Z,4.18
2019-05-06T04:36:24.041Z,4.32
2019-05-06T04:37:24.354Z,4.19
2019-05-06T04:38:24.137Z,4.29
2019-05-06T04:39:24.165Z,4.36
2019-05-06T04:40:24.242Z,4.33
2019-05-06T04:41:26.803Z,4.39
2019-05-06T04:42:26.896Z,4.37
2019-05-06T04:43:26.950Z,4.37
2019-05-06T04:44:24.445Z,4.34
2019-05-06T04:45:24.432Z,4.34
2019-05-06T04:46:24.465Z,4.32
2019-05-06T04:47:24.514Z,4.29
2019-05-06T04:48:24.544Z,4.29
2019-05-06T04:49:24.588Z,4.32
2019-05-06T04:50:24.677Z,4.37
2019-05-06T04:51:25.071Z,4.40
2019-05-06T04:52:26.062Z,4.43
2019-05-06T04:53:27.079Z,4.40
2019-05-06T04:54:26.663Z,4.40
2019-05-06T04:55:24.879Z,4.43
2019-05-06T04:56:24.875Z,4.37
2019-05-06T04:57:24.931Z,4.47
2019-05-06T04:58:24.996Z,4.54
2019-05-06T04:59:25.003Z,4.54
2019-05-06T05:00:25.078Z,4.62
2019-05-06T05:01:25.105Z,4.62
2019-05-06T05:02:25.149Z,4.70
2019-05-06T05:03:25.167Z,4.70
2019-05-06T05:04:32.178Z,4.84
2019-05-06T05:05:25.357Z,4.84
2019-05-06T05:06:25.325Z,4.92
2019-05-06T05:07:25.338Z,5.01
2019-05-06T05:08:25.384Z,5.07
2019-05-06T05:09:25.424Z,5.05
2019-05-06T05:10:25.463Z,5.19
2019-05-06T05:11:25.530Z,5.20
2019-05-06T05:12:25.575Z,5.19
2019-05-06T05:13:25.589Z,5.20
2019-05-06T05:14:26.189Z,5.22
2019-05-06T05:15:25.674Z,5.20
2019-05-06T05:16:25.740Z,5.27
2019-05-06T05:17:25.758Z,5.19
2019-05-06T05:18:25.800Z,5.25
2019-05-06T05:19:25.851Z,5.20
2019-05-06T05:20:37.066Z,5.22
2019-05-06T05:21:25.953Z,5.19
2019-05-06T05:22:25.970Z,5.19
2019-05-06T05:23:26.013Z,5.19
2019-05-06T05:24:26.056Z,5.22
2019-05-06T05:25:26.096Z,5.16
2019-05-06T05:26:26.162Z,5.25
2019-05-06T05:27:26.180Z,5.35
2019-05-06T05:28:26.230Z,5.32
2019-05-06T05:29:26.270Z,5.30
2019-05-06T05:30:26.310Z,5.40
2019-05-06T05:31:26.371Z,5.38
2019-05-06T05:32:26.938Z,5.46
2019-05-06T05:33:26.437Z,5.48
2019-05-06T05:34:37.121Z,5.56
2019-05-06T05:35:26.524Z,5.56
2019-05-06T05:36:26.586Z,5.48
2019-05-06T05:37:26.657Z,5.52
2019-05-06T05:38:26.651Z,5.57
2019-05-06T05:39:26.692Z,5.56
2019-05-06T05:40:26.739Z,5.60
2019-05-06T05:41:26.800Z,5.70
2019-05-06T05:42:27.042Z,5.71
2019-05-06T05:43:26.875Z,5.78
2019-05-06T05:44:26.907Z,5.74
2019-05-06T05:45:26.958Z,5.77
2019-05-06T05:46:27.014Z,5.85
2019-05-06T05:47:27.071Z,5.86
2019-05-06T05:48:27.080Z,5.85
2019-05-06T05:49:27.127Z,5.96
2019-05-06T05:50:27.163Z,5.92
2019-05-06T05:51:27.233Z,5.88
2019-05-06T05:52:27.272Z,5.92
2019-05-06T05:53:27.296Z,5.93
2019-05-06T05:54:27.342Z,5.89
2019-05-06T05:55:27.378Z,5.92
2019-05-06T05:56:27.452Z,5.95
2019-05-06T05:57:27.490Z,5.98
2019-05-06T05:58:27.510Z,6.01
2019-05-06T05:59:27.557Z,6.07
2019-05-06T06:00:27.605Z,6.10
2019-05-06T06:01:27.644Z,6.06
2019-05-06T06:02:27.722Z,6.04
2019-05-06T06:03:27.726Z,6.01
2019-05-06T06:04:27.778Z,6.04
2019-05-06T06:05:27.814Z,6.07
2019-05-06T06:06:27.859Z,6.13
2019-05-06T06:07:27.923Z,6.19
2019-05-06T06:08:27.949Z,6.32
2019-05-06T06:09:27.986Z,6.28
2019-05-06T06:10:28.042Z,6.35
2019-05-06T06:11:28.078Z,6.29
2019-05-06T06:12:28.146Z,6.32
2019-05-06T06:13:28.165Z,6.50
2019-05-06T06:14:28.240Z,6.48
2019-05-06T06:15:28.250Z,6.53
2019-05-06T06:16:28.308Z,6.56
2019-05-06T06:17:28.367Z,6.51
2019-05-06T06:18:28.380Z,6.65
2019-05-06T06:19:28.427Z,6.53
2019-05-06T06:20:28.467Z,6.54
2019-05-06T06:21:28.512Z,6.54
2019-05-06T06:22:28.575Z,6.61
2019-05-06T06:23:28.600Z,6.53
2019-05-06T06:24:28.646Z,6.61
2019-05-06T06:25:28.696Z,6.72
2019-05-06T06:26:28.789Z,6.79
2019-05-06T06:27:28.802Z,6.76
2019-05-06T06:28:28.838Z,6.83
2019-05-06T06:29:28.865Z,6.79
2019-05-06T06:30:28.909Z,6.77
2019-05-06T06:31:28.956Z,6.77
2019-05-06T06:32:28.996Z,6.84
2019-05-06T06:33:29.126Z,6.79
2019-05-06T06:34:29.097Z,6.76
2019-05-06T06:35:29.126Z,6.69
2019-05-06T06:36:29.180Z,6.65
2019-05-06T06:37:29.223Z,6.73
2019-05-06T06:38:29.295Z,6.76
2019-05-06T06:39:29.307Z,6.71
2019-05-06T06:40:29.392Z,6.81
2019-05-06T06:41:29.389Z,6.79
2019-05-06T06:42:29.447Z,6.87
2019-05-06T06:43:29.521Z,6.86
2019-05-06T06:44:29.551Z,6.91
2019-05-06T06:45:29.583Z,7.09
2019-05-06T06:46:29.626Z,7.13
2019-05-06T06:47:31.924Z,7.24
2019-05-06T06:48:29.712Z,7.27
2019-05-06T06:49:29.782Z,7.31
2019-05-06T06:50:29.792Z,7.35
2019-05-06T06:51:29.833Z,7.42
2019-05-06T06:52:29.880Z,7.47
2019-05-06T06:53:29.924Z,7.41
2019-05-06T06:54:32.177Z,7.45
2019-05-06T06:55:31.744Z,7.24
2019-05-06T06:56:30.059Z,7.26
2019-05-06T06:57:32.240Z,7.23
2019-05-06T06:58:32.171Z,7.26
2019-05-06T06:59:31.773Z,7.27
2019-05-06T07:00:30.245Z,7.29
2019-05-06T07:01:33.022Z,7.41
2019-05-06T07:02:32.665Z,7.50
2019-05-06T07:03:32.616Z,7.63
2019-05-06T07:04:32.404Z,7.81
2019-05-06T07:05:33.063Z,7.92
2019-05-06T07:06:30.504Z,7.94
2019-05-06T07:07:41.227Z,7.99
2019-05-06T07:08:34.840Z,8.04
2019-05-06T07:09:32.269Z,8.18
2019-05-06T07:10:32.415Z,8.25
2019-05-06T07:11:33.040Z,8.63
2019-05-06T07:12:32.679Z,9.18
2019-05-06T07:13:32.579Z,9.18
2019-05-06T07:14:32.659Z,9.48
2019-05-06T07:15:33.395Z,9.57
2019-05-06T07:16:32.774Z,9.76
2019-05-06T07:17:32.791Z,9.70
2019-05-06T07:18:33.051Z,9.70
2019-05-06T07:19:32.722Z,10.18
2019-05-06T07:20:32.489Z,10.98
2019-05-06T07:21:34.083Z,10.77
2019-05-06T07:22:32.494Z,10.59
2019-05-06T07:23:32.688Z,10.76
2019-05-06T07:24:32.424Z,10.15
2019-05-06T07:25:33.648Z,10.19
2019-05-06T07:26:31.799Z,10.33
2019-05-06T07:27:32.435Z,10.33
2019-05-06T07:28:32.642Z,10.58
2019-05-06T07:29:32.766Z,10.99
2019-05-06T07:30:32.282Z,11.20
2019-05-06T07:31:33.043Z,11.36
2019-05-06T07:32:32.581Z,11.59
2019-05-06T07:33:33.447Z,11.71
2019-05-06T07:34:32.201Z,11.77
2019-05-06T07:35:40.417Z,11.89
2019-05-06T07:36:32.261Z,12.31
2019-05-06T07:37:32.761Z,12.44
2019-05-06T07:38:32.538Z,13.15
2019-05-06T07:39:33.360Z,13.30
2019-05-06T07:40:32.612Z,13.71
2019-05-06T07:41:32.814Z,13.79
2019-05-06T07:42:32.291Z,13.47
2019-05-06T07:43:33.909Z,13.59
2019-05-06T07:44:33.382Z,13.83
2019-05-06T07:45:32.841Z,14.28
2019-05-06T07:46:33.128Z,14.69
2019-05-06T07:47:33.076Z,14.88
2019-05-06T07:48:32.452Z,15.21
2019-05-06T07:49:32.921Z,14.54
2019-05-06T07:50:33.235Z,14.62
2019-05-06T07:51:32.616Z,14.43
2019-05-06T07:52:32.710Z,14.56
2019-05-06T07:53:32.703Z,14.65
2019-05-06T07:54:32.946Z,14.83
2019-05-06T07:55:32.860Z,14.56
2019-05-06T07:56:32.866Z,14.37
2019-05-06T07:57:33.103Z,13.92
2019-05-06T07:58:32.936Z,13.07
2019-05-06T07:59:33.447Z,13.20
2019-05-06T08:00:33.158Z,13.71
2019-05-06T08:01:33.355Z,14.20
2019-05-06T08:02:33.130Z,14.21
2019-05-06T08:03:33.177Z,14.53
2019-05-06T08:04:33.242Z,14.78
2019-05-06T08:05:33.287Z,14.88
2019-05-06T08:06:33.355Z,14.83
2019-05-06T08:07:33.429Z,14.17
2019-05-06T08:08:33.874Z,13.21
2019-05-06T08:09:33.480Z,11.71
2019-05-06T08:10:33.544Z,10.81
2019-05-06T08:11:33.590Z,10.42
2019-05-06T08:12:33.618Z,10.47
2019-05-06T08:13:33.669Z,10.74
2019-05-06T08:14:33.716Z,10.47
2019-05-06T08:15:33.784Z,10.19
2019-05-06T08:16:33.832Z,10.36
2019-05-06T08:17:33.887Z,10.60
2019-05-06T08:18:33.959Z,10.14
2019-05-06T08:19:33.964Z,10.52
2019-05-06T08:20:34.010Z,10.95
2019-05-06T08:21:34.079Z,11.53
2019-05-06T08:22:34.105Z,11.49
2019-05-06T08:23:34.156Z,10.86
2019-05-06T08:24:34.201Z,11.09
2019-05-06T08:25:34.300Z,10.43
2019-05-06T08:26:34.339Z,10.01
2019-05-06T08:27:34.384Z,10.28
2019-05-06T08:28:40.696Z,10.01
2019-05-06T08:29:34.485Z,9.93
2019-05-06T08:30:34.519Z,9.68
2019-05-06T08:31:34.539Z,9.82
2019-05-06T08:32:34.608Z,9.76
2019-05-06T08:33:34.643Z,9.91
2019-05-06T08:34:34.681Z,10.39
2019-05-06T08:35:34.731Z,10.43
2019-05-06T08:36:34.778Z,10.81
2019-05-06T08:37:34.859Z,11.61
2019-05-06T08:38:34.877Z,11.41
2019-05-06T08:39:34.922Z,11.86
2019-05-06T08:40:34.974Z,11.32
2019-05-06T08:41:35.022Z,10.62
2019-05-06T08:42:35.109Z,10.10
2019-05-06T08:43:35.119Z,10.10
2019-05-06T08:44:35.161Z,10.19
2019-05-06T08:45:35.217Z,10.04
2019-05-06T08:46:35.264Z,10.12
2019-05-06T08:47:35.336Z,10.78
2019-05-06T08:48:35.375Z,10.77
2019-05-06T08:49:35.402Z,11.44
2019-05-06T08:50:35.456Z,10.34
2019-05-06T08:51:35.497Z,9.91
2019-05-06T08:52:35.579Z,9.67
2019-05-06T08:53:35.591Z,9.24
2019-05-06T08:54:35.642Z,9.56
2019-05-06T08:55:35.728Z,9.31
2019-05-06T08:56:35.753Z,9.20
2019-05-06T08:57:35.808Z,9.31
2019-05-06T08:58:35.864Z,9.48
2019-05-06T08:59:35.891Z,9.15
2019-05-06T09:00:35.930Z,9.18
2019-05-06T09:01:35.974Z,9.16
2019-05-06T09:02:36.040Z,9.89
2019-05-06T09:03:36.094Z,10.14
2019-05-06T09:04:36.117Z,10.03
2019-05-06T09:05:36.169Z,9.57
2019-05-06T09:06:36.215Z,9.16
2019-05-06T09:07:36.263Z,9.18
2019-05-06T09:08:36.328Z,8.91
2019-05-06T09:09:36.374Z,8.68
2019-05-06T09:10:36.415Z,8.47
2019-05-06T09:11:36.446Z,8.35
2019-05-06T09:12:36.503Z,8.26
2019-05-06T09:13:36.562Z,8.45
2019-05-06T09:14:36.609Z,8.54
2019-05-06T09:15:36.637Z,8.84
2019-05-06T09:16:36.685Z,8.87
2019-05-06T09:17:36.727Z,8.86
2019-05-06T09:18:36.814Z,9.12
2019-05-06T09:19:36.831Z,9.42
2019-05-06T09:20:36.870Z,9.75
2019-05-06T09:21:36.924Z,9.79
2019-05-06T09:22:36.968Z,9.58
2019-05-06T09:23:37.037Z,9.39
2019-05-06T09:24:37.056Z,9.49
2019-05-06T09:25:37.108Z,9.79
2019-05-06T09:26:37.155Z,10.24
2019-05-06T09:27:37.238Z,10.74
2019-05-06T09:28:37.262Z,10.77
2019-05-06T09:29:37.310Z,10.94
2019-05-06T09:30:37.347Z,10.56
2019-05-06T09:31:37.393Z,11.07
2019-05-06T09:32:37.434Z,11.54
2019-05-06T09:33:37.476Z,10.78
2019-05-06T09:34:37.552Z,10.59
2019-05-06T09:35:37.577Z,11.10
2019-05-06T09:36:44.218Z,11.82
2019-05-06T09:37:37.673Z,11.86
2019-05-06T09:38:37.723Z,11.52
2019-05-06T09:39:37.785Z,11.59
2019-05-06T09:40:37.823Z,12.05
2019-05-06T09:41:37.898Z,12.29
2019-05-06T09:42:37.925Z,12.01
2019-05-06T09:43:37.964Z,11.75
2019-05-06T09:44:38.037Z,11.28
2019-05-06T09:45:38.066Z,10.14
2019-05-06T09:46:38.121Z,9.46
2019-05-06T09:47:38.210Z,9.10
2019-05-06T09:48:38.203Z,9.28
2019-05-06T09:49:38.279Z,9.58
2019-05-06T09:50:38.328Z,10.00
2019-05-06T09:51:38.351Z,10.04
2019-05-06T09:52:38.401Z,10.15
2019-05-06T09:53:38.456Z,10.25
2019-05-06T09:54:38.629Z,10.37
2019-05-06T09:55:38.547Z,10.47
2019-05-06T09:56:38.607Z,10.58
2019-05-06T09:57:38.640Z,10.65
2019-05-06T09:58:38.691Z,10.37
2019-05-06T09:59:38.774Z,10.03
2019-05-06T10:00:38.805Z,9.63
2019-05-06T10:01:38.840Z,9.57
2019-05-06T10:02:38.880Z,9.49
2019-05-06T10:03:38.929Z,9.46
2019-05-06T10:04:38.982Z,9.63
2019-05-06T10:05:39.048Z,9.60
2019-05-06T10:06:39.073Z,9.79
2019-05-06T10:07:39.117Z,9.88
2019-05-06T10:08:39.167Z,10.07
2019-05-06T10:09:39.213Z,10.36
2019-05-06T10:10:52.930Z,10.52
2019-05-06T10:11:39.316Z,10.68
2019-05-06T10:12:39.407Z,10.80
2019-05-06T10:13:39.419Z,10.99
2019-05-06T10:14:39.459Z,11.24
2019-05-06T10:15:39.525Z,11.25
2019-05-06T10:16:39.565Z,11.35
2019-05-06T10:17:39.594Z,11.46
2019-05-06T10:18:39.643Z,11.53
2019-05-06T10:19:39.692Z,11.53
2019-05-06T10:20:42.276Z,11.57
2019-05-06T10:21:39.792Z,11.68
2019-05-06T10:22:39.839Z,11.61
2019-05-06T10:23:42.160Z,11.57
2019-05-06T10:24:39.940Z,11.72
2019-05-06T10:25:40.016Z,11.44
2019-05-06T10:26:40.095Z,11.50
2019-05-06T10:27:42.114Z,11.11
2019-05-06T10:28:40.127Z,11.20
2019-05-06T10:29:40.175Z,11.25
2019-05-06T10:30:40.249Z,11.32
2019-05-06T10:31:40.272Z,11.41
2019-05-06T10:32:42.474Z,11.44
2019-05-06T10:33:42.644Z,11.28
2019-05-06T10:34:40.418Z,11.02
2019-05-06T10:35:42.671Z,10.62
2019-05-06T10:36:42.592Z,10.59
2019-05-06T10:37:42.216Z,10.98
2019-05-06T10:38:42.332Z,11.27
2019-05-06T10:39:40.660Z,11.49
2019-05-06T10:40:59.037Z,10.88
2019-05-06T10:41:42.236Z,10.56
2019-05-06T10:42:42.901Z,10.25
2019-05-06T10:43:42.975Z,10.14
2019-05-06T10:44:42.781Z,10.03
2019-05-06T10:45:42.654Z,10.14
2019-05-06T10:46:42.929Z,10.37
2019-05-06T10:47:42.332Z,10.53
2019-05-06T10:48:42.425Z,10.80
2019-05-06T10:49:42.081Z,10.81
2019-05-06T10:50:41.192Z,10.68
2019-05-06T10:51:42.737Z,10.65
2019-05-06T10:52:41.305Z,10.76
2019-05-06T10:53:42.441Z,10.66
2019-05-06T10:54:42.121Z,10.80
2019-05-06T10:55:42.753Z,10.96
2019-05-06T10:56:50.712Z,11.02
2019-05-06T10:57:43.111Z,11.28
2019-05-06T10:58:43.779Z,11.52
2019-05-06T10:59:42.923Z,11.65
2019-05-06T11:00:42.487Z,11.83
2019-05-06T11:01:42.640Z,11.85
2019-05-06T11:02:43.017Z,11.65
2019-05-06T11:03:42.065Z,11.54
2019-05-06T11:04:42.575Z,11.57
2019-05-06T11:05:43.153Z,11.20
2019-05-06T11:06:42.990Z,11.11
2019-05-06T11:07:43.087Z,10.89
2019-05-06T11:08:42.227Z,10.81
2019-05-06T11:09:42.646Z,10.81
2019-05-06T11:10:45.176Z,10.78
2019-05-06T11:11:42.763Z,10.80
2019-05-06T11:12:43.064Z,10.83
2019-05-06T11:13:42.295Z,10.83
2019-05-06T11:14:42.346Z,10.86
2019-05-06T11:15:43.408Z,10.76
2019-05-06T11:16:42.477Z,11.02
2019-05-06T11:17:43.619Z,11.09
2019-05-06T11:18:42.763Z,11.24
2019-05-06T11:19:42.821Z,11.13
2019-05-06T11:20:43.978Z,11.24
2019-05-06T11:21:45.224Z,11.31
2019-05-06T11:22:43.541Z,11.43
2019-05-06T11:23:42.777Z,11.62
2019-05-06T11:24:42.824Z,11.86
2019-05-06T11:25:43.327Z,11.99
2019-05-06T11:26:43.149Z,12.23
2019-05-06T11:27:45.231Z,11.65
2019-05-06T11:28:43.026Z,11.46
2019-05-06T11:29:43.534Z,11.64
2019-05-06T11:30:43.113Z,11.94
2019-05-06T11:31:43.349Z,12.19
2019-05-06T11:32:44.419Z,12.44
2019-05-06T11:33:43.264Z,12.39
2019-05-06T11:34:43.322Z,12.08
2019-05-06T11:35:43.357Z,12.16
2019-05-06T11:36:43.417Z,12.29
2019-05-06T11:37:49.768Z,12.59
2019-05-06T11:38:43.517Z,12.39
2019-05-06T11:39:43.555Z,12.41
2019-05-06T11:40:43.612Z,12.48
2019-05-06T11:41:59.619Z,12.06
2019-05-06T11:42:43.863Z,11.96
2019-05-06T11:43:43.767Z,12.26
2019-05-06T11:44:44.206Z,12.60
2019-05-06T11:45:43.857Z,13.06
2019-05-06T11:46:43.920Z,12.27
2019-05-06T11:47:43.980Z,12.05
2019-05-06T11:48:44.006Z,12.44
2019-05-06T11:49:44.287Z,11.65
2019-05-06T11:50:44.103Z,11.64
2019-05-06T11:51:44.159Z,12.27
2019-05-06T11:52:44.238Z,13.02
2019-05-06T11:53:44.256Z,13.46
2019-05-06T11:54:44.303Z,13.89
2019-05-06T11:55:44.460Z,14.16
2019-05-06T11:56:50.777Z,13.61
2019-05-06T11:57:44.588Z,14.04
2019-05-06T11:58:44.508Z,14.52
2019-05-06T11:59:44.592Z,15.02
2019-05-06T12:00:44.626Z,15.11
2019-05-06T12:01:44.669Z,15.31
2019-05-06T12:02:48.421Z,14.95
2019-05-06T12:03:44.788Z,14.95
2019-05-06T12:04:44.827Z,14.06
2019-05-06T12:05:44.864Z,13.09
2019-05-06T12:06:44.928Z,12.66
2019-05-06T12:08:00.434Z,12.79
2019-05-06T12:08:45.036Z,12.89
2019-05-06T12:09:45.084Z,13.55
2019-05-06T12:10:45.124Z,14.14
2019-05-06T12:11:45.171Z,14.35
2019-05-06T12:12:45.239Z,13.88
2019-05-06T12:13:45.305Z,13.58
2019-05-06T12:14:45.337Z,13.96
2019-05-06T12:15:45.391Z,13.52
2019-05-06T12:16:45.446Z,13.41
2019-05-06T12:17:45.493Z,13.21
2019-05-06T12:18:45.557Z,12.95
2019-05-06T12:19:45.586Z,13.12
2019-05-06T12:20:45.639Z,13.22
2019-05-06T12:21:45.701Z,12.93
2019-05-06T12:22:45.751Z,12.71
2019-05-06T12:23:45.824Z,12.44
2019-05-06T12:24:45.866Z,12.39
2019-05-06T12:25:46.281Z,12.31
2019-05-06T12:26:45.962Z,12.26
2019-05-06T12:27:46.071Z,12.04
2019-05-06T12:28:46.074Z,11.80
2019-05-06T12:29:46.104Z,11.68
2019-05-06T12:30:46.152Z,11.75
2019-05-06T12:31:46.212Z,11.11
2019-05-06T12:32:46.256Z,11.36
2019-05-06T12:33:46.326Z,11.36
2019-05-06T12:34:46.370Z,11.57
2019-05-06T12:35:46.410Z,11.97
2019-05-06T12:36:46.459Z,11.89
2019-05-06T12:37:46.515Z,11.25
2019-05-06T12:38:46.579Z,11.10
2019-05-06T12:39:46.630Z,11.47
2019-05-06T12:40:46.658Z,11.59
2019-05-06T12:41:46.707Z,11.94
2019-05-06T12:42:46.766Z,12.02
2019-05-06T12:43:46.807Z,12.05
2019-05-06T12:44:46.879Z,12.20
2019-05-06T12:45:46.994Z,12.38
2019-05-06T12:46:46.966Z,12.62
2019-05-06T12:47:47.016Z,12.75
2019-05-06T12:48:47.061Z,12.59
2019-05-06T12:49:47.125Z,12.38
2019-05-06T12:50:47.158Z,12.12
2019-05-06T12:51:47.218Z,12.20
2019-05-06T12:52:47.289Z,12.26
2019-05-06T12:53:47.324Z,12.44
2019-05-06T12:54:47.512Z,12.39
2019-05-06T12:55:47.406Z,12.26
2019-05-06T12:56:47.458Z,11.65
2019-05-06T12:57:47.524Z,11.21
2019-05-06T12:58:47.560Z,10.74
2019-05-06T12:59:47.622Z,10.84
2019-05-06T13:00:47.661Z,11.16
2019-05-06T13:01:47.759Z,11.50
2019-05-06T13:02:47.751Z,11.59
2019-05-06T13:03:47.805Z,11.74
2019-05-06T13:04:56.249Z,11.93
2019-05-06T13:05:47.907Z,12.04
2019-05-06T13:06:47.959Z,12.23
2019-05-06T13:07:48.000Z,12.02
2019-05-06T13:08:58.888Z,12.08